Palm Springs International Airport Palm Springs US
ICAO: KPSP
IATA: PSP
Category: Medium
Scheduled Services: Yes

Elevation: 477 ft
TransAlt. 18000 ft.

Airport Communications:
APP/DEP:126.7
ATIS:118.25
CLNC DEL:128.35
CTAF:119.7
GND:121.9
RIVERSIDE RDO:115.5
TWR:119.7
UNICOM:122.95

KPSP Zoom In..

Runways:

(A) RW 13L length 4952 ft width 75 ft
---- / hdg 130

(B) RW 13R length 10001 ft width 150 ft
---- / hdg 130

(C) RW 31L length 10001 ft width 150 ft
---- / hdg 310

(D) RW 31R length 4952 ft width 75 ft
---- / hdg 310

Location; KPSP
Day. 23 / Time. 02.53 Zulu
* Altimeter: 29.83
* Temperature: 41° c. 105.8°f.
* Wind from: 290° Speed 15 kn with Gusts up to 23 kn.
Dewpoint: 13° c.
Visibility: 10 Statute Miles.
Clouds: Clear (automated report).

KPSP 230253Z 29015G23KT 10SM CLR 41/13 A2983 RMK AO2 SLP094 T04060128 53000


Wind From 290°
Speed 15 kn.

 
 
jpsmedia.com for Web Design worldairports.se 2018   terms of use